sensor_id;sensor_type;location;lat;lon;timestamp;P1;durP1;ratioP1;P2;durP2;ratioP2
17570;SDS011;8903;52.220;20.978;2024-02-21T00:00:20;7.20;;;4.87;;
17570;SDS011;8903;52.220;20.978;2024-02-21T00:02:45;16.70;;;6.20;;
17570;SDS011;8903;52.220;20.978;2024-02-21T00:05:11;17.97;;;5.73;;
17570;SDS011;8903;52.220;20.978;2024-02-21T00:07:37;14.53;;;6.47;;
17570;SDS011;8903;52.220;20.978;2024-02-21T00:10:03;13.03;;;6.23;;
17570;SDS011;8903;52.220;20.978;2024-02-21T00:12:29;13.87;;;5.43;;
17570;SDS011;8903;52.220;20.978;2024-02-21T00:14:54;12.87;;;5.57;;
17570;SDS011;8903;52.220;20.978;2024-02-21T00:17:20;13.00;;;6.40;;
17570;SDS011;8903;52.220;20.978;2024-02-21T00:19:46;12.17;;;5.60;;
17570;SDS011;8903;52.220;20.978;2024-02-21T00:22:11;12.87;;;6.50;;
17570;SDS011;8903;52.220;20.978;2024-02-21T00:24:37;15.83;;;5.90;;
17570;SDS011;8903;52.220;20.978;2024-02-21T00:27:03;14.13;;;5.80;;
17570;SDS011;8903;52.220;20.978;2024-02-21T00:29:29;10.67;;;6.23;;
17570;SDS011;8903;52.220;20.978;2024-02-21T00:31:55;13.10;;;6.00;;
17570;SDS011;8903;52.220;20.978;2024-02-21T00:34:20;13.37;;;5.80;;
17570;SDS011;8903;52.220;20.978;2024-02-21T00:36:46;13.03;;;5.50;;
17570;SDS011;8903;52.220;20.978;2024-02-21T00:39:12;11.27;;;6.00;;
17570;SDS011;8903;52.220;20.978;2024-02-21T00:41:37;12.17;;;5.90;;
17570;SDS011;8903;52.220;20.978;2024-02-21T00:44:03;21.23;;;6.90;;
17570;SDS011;8903;52.220;20.978;2024-02-21T00:46:31;10.73;;;5.90;;
17570;SDS011;8903;52.220;20.978;2024-02-21T00:48:57;9.77;;;5.20;;
17570;SDS011;8903;52.220;20.978;2024-02-21T00:51:22;15.63;;;6.37;;
17570;SDS011;8903;52.220;20.978;2024-02-21T00:53:48;13.43;;;6.00;;
17570;SDS011;8903;52.220;20.978;2024-02-21T00:56:14;22.27;;;5.97;;
17570;SDS011;8903;52.220;20.978;2024-02-21T00:58:39;11.00;;;5.63;;
17570;SDS011;8903;52.220;20.978;2024-02-21T01:01:05;11.90;;;5.80;;
17570;SDS011;8903;52.220;20.978;2024-02-21T01:03:31;15.70;;;6.37;;
17570;SDS011;8903;52.220;20.978;2024-02-21T01:05:57;14.97;;;5.33;;
17570;SDS011;8903;52.220;20.978;2024-02-21T01:08:23;13.10;;;5.93;;
17570;SDS011;8903;52.220;20.978;2024-02-21T01:10:49;18.93;;;5.77;;
17570;SDS011;8903;52.220;20.978;2024-02-21T01:13:14;19.03;;;7.40;;
17570;SDS011;8903;52.220;20.978;2024-02-21T01:15:40;14.70;;;6.23;;
17570;SDS011;8903;52.220;20.978;2024-02-21T01:18:06;10.00;;;6.07;;
17570;SDS011;8903;52.220;20.978;2024-02-21T01:20:31;17.90;;;6.43;;
17570;SDS011;8903;52.220;20.978;2024-02-21T01:22:57;11.57;;;5.70;;
17570;SDS011;8903;52.220;20.978;2024-02-21T01:25:23;13.00;;;6.23;;
17570;SDS011;8903;52.220;20.978;2024-02-21T01:27:48;10.03;;;5.50;;
17570;SDS011;8903;52.220;20.978;2024-02-21T01:30:14;10.33;;;6.10;;
17570;SDS011;8903;52.220;20.978;2024-02-21T01:32:40;12.00;;;6.47;;
17570;SDS011;8903;52.220;20.978;2024-02-21T01:35:06;9.50;;;5.83;;
17570;SDS011;8903;52.220;20.978;2024-02-21T01:37:33;17.43;;;6.90;;
17570;SDS011;8903;52.220;20.978;2024-02-21T01:39:58;11.20;;;6.03;;
17570;SDS011;8903;52.220;20.978;2024-02-21T01:42:24;10.27;;;6.50;;
17570;SDS011;8903;52.220;20.978;2024-02-21T01:44:50;12.20;;;6.23;;
17570;SDS011;8903;52.220;20.978;2024-02-21T01:47:16;13.93;;;6.77;;
17570;SDS011;8903;52.220;20.978;2024-02-21T01:49:42;14.07;;;7.43;;
17570;SDS011;8903;52.220;20.978;2024-02-21T01:52:08;14.77;;;7.20;;
17570;SDS011;8903;52.220;20.978;2024-02-21T01:54:35;17.40;;;7.80;;
17570;SDS011;8903;52.220;20.978;2024-02-21T01:57:01;13.50;;;8.20;;
17570;SDS011;8903;52.220;20.978;2024-02-21T01:59:27;20.97;;;8.07;;
17570;SDS011;8903;52.220;20.978;2024-02-21T02:01:53;15.03;;;7.40;;
17570;SDS011;8903;52.220;20.978;2024-02-21T02:04:21;13.57;;;7.80;;
17570;SDS011;8903;52.220;20.978;2024-02-21T02:06:50;15.00;;;7.73;;
17570;SDS011;8903;52.220;20.978;2024-02-21T02:09:16;22.33;;;8.47;;
17570;SDS011;8903;52.220;20.978;2024-02-21T02:11:42;15.23;;;8.57;;
17570;SDS011;8903;52.220;20.978;2024-02-21T02:14:08;13.23;;;8.40;;
17570;SDS011;8903;52.220;20.978;2024-02-21T02:16:34;14.87;;;7.83;;
17570;SDS011;8903;52.220;20.978;2024-02-21T02:19:00;12.60;;;7.60;;
17570;SDS011;8903;52.220;20.978;2024-02-21T02:21:29;19.80;;;8.37;;
17570;SDS011;8903;52.220;20.978;2024-02-21T02:23:57;17.73;;;8.50;;
17570;SDS011;8903;52.220;20.978;2024-02-21T02:26:24;17.80;;;8.13;;
17570;SDS011;8903;52.220;20.978;2024-02-21T02:28:50;16.00;;;7.40;;
17570;SDS011;8903;52.220;20.978;2024-02-21T02:31:16;14.70;;;7.30;;
17570;SDS011;8903;52.220;20.978;2024-02-21T02:33:44;14.43;;;7.30;;
17570;SDS011;8903;52.220;20.978;2024-02-21T02:36:10;16.27;;;6.40;;
17570;SDS011;8903;52.220;20.978;2024-02-21T02:38:36;12.40;;;6.97;;
17570;SDS011;8903;52.220;20.978;2024-02-21T02:41:02;22.07;;;7.27;;
17570;SDS011;8903;52.220;20.978;2024-02-21T02:43:28;14.80;;;7.63;;
17570;SDS011;8903;52.220;20.978;2024-02-21T02:45:53;21.90;;;8.30;;
17570;SDS011;8903;52.220;20.978;2024-02-21T02:48:20;12.83;;;6.80;;
17570;SDS011;8903;52.220;20.978;2024-02-21T02:50:46;19.90;;;8.33;;
17570;SDS011;8903;52.220;20.978;2024-02-21T02:53:12;14.83;;;7.80;;
17570;SDS011;8903;52.220;20.978;2024-02-21T02:55:38;13.00;;;8.20;;
17570;SDS011;8903;52.220;20.978;2024-02-21T02:58:03;15.77;;;8.00;;
17570;SDS011;8903;52.220;20.978;2024-02-21T03:00:29;15.60;;;7.50;;
17570;SDS011;8903;52.220;20.978;2024-02-21T03:02:55;16.17;;;9.67;;
17570;SDS011;8903;52.220;20.978;2024-02-21T03:05:21;28.00;;;8.90;;
17570;SDS011;8903;52.220;20.978;2024-02-21T03:07:47;17.90;;;7.43;;
17570;SDS011;8903;52.220;20.978;2024-02-21T03:10:14;21.93;;;9.63;;
17570;SDS011;8903;52.220;20.978;2024-02-21T03:12:42;24.33;;;10.30;;
17570;SDS011;8903;52.220;20.978;2024-02-21T03:15:08;20.13;;;9.80;;
17570;SDS011;8903;52.220;20.978;2024-02-21T03:17:35;21.57;;;10.30;;
17570;SDS011;8903;52.220;20.978;2024-02-21T03:20:06;19.60;;;10.50;;
17570;SDS011;8903;52.220;20.978;2024-02-21T03:22:36;19.73;;;10.00;;
17570;SDS011;8903;52.220;20.978;2024-02-21T03:25:02;27.33;;;9.30;;
17570;SDS011;8903;52.220;20.978;2024-02-21T03:27:29;20.50;;;10.07;;
17570;SDS011;8903;52.220;20.978;2024-02-21T03:29:54;17.40;;;9.57;;
17570;SDS011;8903;52.220;20.978;2024-02-21T03:32:20;15.87;;;8.70;;
17570;SDS011;8903;52.220;20.978;2024-02-21T03:34:46;15.00;;;9.50;;
17570;SDS011;8903;52.220;20.978;2024-02-21T03:37:12;22.37;;;10.37;;
17570;SDS011;8903;52.220;20.978;2024-02-21T03:39:39;16.10;;;9.83;;
17570;SDS011;8903;52.220;20.978;2024-02-21T03:42:05;16.77;;;10.27;;
17570;SDS011;8903;52.220;20.978;2024-02-21T03:44:31;23.80;;;9.27;;
17570;SDS011;8903;52.220;20.978;2024-02-21T03:46:57;14.70;;;10.00;;
17570;SDS011;8903;52.220;20.978;2024-02-21T03:49:26;21.20;;;9.30;;
17570;SDS011;8903;52.220;20.978;2024-02-21T03:51:52;20.10;;;8.63;;
17570;SDS011;8903;52.220;20.978;2024-02-21T03:54:18;20.93;;;10.57;;
17570;SDS011;8903;52.220;20.978;2024-02-21T03:56:44;21.83;;;9.63;;
17570;SDS011;8903;52.220;20.978;2024-02-21T03:59:09;15.80;;;8.10;;
17570;SDS011;8903;52.220;20.978;2024-02-21T04:01:35;20.93;;;8.80;;
17570;SDS011;8903;52.220;20.978;2024-02-21T04:04:01;13.43;;;9.50;;
17570;SDS011;8903;52.220;20.978;2024-02-21T04:06:27;17.70;;;8.47;;
17570;SDS011;8903;52.220;20.978;2024-02-21T04:08:53;22.10;;;11.10;;
17570;SDS011;8903;52.220;20.978;2024-02-21T04:11:19;20.40;;;10.50;;
17570;SDS011;8903;52.220;20.978;2024-02-21T04:13:45;13.80;;;9.60;;
17570;SDS011;8903;52.220;20.978;2024-02-21T04:16:14;18.67;;;9.63;;
17570;SDS011;8903;52.220;20.978;2024-02-21T04:18:40;15.50;;;9.73;;
17570;SDS011;8903;52.220;20.978;2024-02-21T04:21:06;21.00;;;10.33;;
17570;SDS011;8903;52.220;20.978;2024-02-21T04:23:32;21.60;;;9.63;;
17570;SDS011;8903;52.220;20.978;2024-02-21T04:25:58;14.53;;;9.70;;
17570;SDS011;8903;52.220;20.978;2024-02-21T04:28:24;20.13;;;11.67;;
17570;SDS011;8903;52.220;20.978;2024-02-21T04:30:50;18.73;;;10.60;;
17570;SDS011;8903;52.220;20.978;2024-02-21T04:33:15;21.33;;;10.67;;
17570;SDS011;8903;52.220;20.978;2024-02-21T04:35:41;15.57;;;10.70;;
17570;SDS011;8903;52.220;20.978;2024-02-21T04:38:07;20.60;;;9.73;;
17570;SDS011;8903;52.220;20.978;2024-02-21T04:40:33;22.40;;;10.00;;
17570;SDS011;8903;52.220;20.978;2024-02-21T04:42:59;16.93;;;10.70;;
17570;SDS011;8903;52.220;20.978;2024-02-21T04:45:24;17.33;;;10.73;;
17570;SDS011;8903;52.220;20.978;2024-02-21T04:47:50;19.07;;;11.00;;
17570;SDS011;8903;52.220;20.978;2024-02-21T04:50:16;16.30;;;10.23;;
17570;SDS011;8903;52.220;20.978;2024-02-21T04:52:42;14.73;;;10.00;;
17570;SDS011;8903;52.220;20.978;2024-02-21T04:55:08;21.57;;;12.47;;
17570;SDS011;8903;52.220;20.978;2024-02-21T04:57:34;28.27;;;11.50;;
17570;SDS011;8903;52.220;20.978;2024-02-21T05:00:00;22.07;;;11.30;;
17570;SDS011;8903;52.220;20.978;2024-02-21T05:02:25;20.93;;;11.47;;
17570;SDS011;8903;52.220;20.978;2024-02-21T05:04:52;22.63;;;12.10;;
17570;SDS011;8903;52.220;20.978;2024-02-21T05:07:18;25.20;;;11.33;;
17570;SDS011;8903;52.220;20.978;2024-02-21T05:09:45;17.47;;;12.30;;
17570;SDS011;8903;52.220;20.978;2024-02-21T05:12:11;22.30;;;12.77;;
17570;SDS011;8903;52.220;20.978;2024-02-21T05:14:37;27.73;;;12.40;;
17570;SDS011;8903;52.220;20.978;2024-02-21T05:17:05;22.20;;;11.77;;
17570;SDS011;8903;52.220;20.978;2024-02-21T05:19:31;20.63;;;12.10;;
17570;SDS011;8903;52.220;20.978;2024-02-21T05:21:58;27.87;;;13.67;;
17570;SDS011;8903;52.220;20.978;2024-02-21T05:24:24;26.97;;;14.37;;
17570;SDS011;8903;52.220;20.978;2024-02-21T05:26:50;34.03;;;13.93;;
17570;SDS011;8903;52.220;20.978;2024-02-21T05:29:16;33.00;;;15.90;;
17570;SDS011;8903;52.220;20.978;2024-02-21T05:34:19;24.70;;;13.40;;
17570;SDS011;8903;52.220;20.978;2024-02-21T05:36:46;26.70;;;15.13;;
17570;SDS011;8903;52.220;20.978;2024-02-21T05:39:12;30.53;;;13.70;;
17570;SDS011;8903;52.220;20.978;2024-02-21T05:41:38;22.20;;;12.50;;
17570;SDS011;8903;52.220;20.978;2024-02-21T05:44:04;27.83;;;13.00;;
17570;SDS011;8903;52.220;20.978;2024-02-21T05:46:29;33.90;;;13.53;;
17570;SDS011;8903;52.220;20.978;2024-02-21T05:48:55;27.90;;;12.83;;
17570;SDS011;8903;52.220;20.978;2024-02-21T05:51:21;43.03;;;14.57;;
17570;SDS011;8903;52.220;20.978;2024-02-21T05:53:47;25.20;;;12.50;;
17570;SDS011;8903;52.220;20.978;2024-02-21T05:56:13;27.17;;;13.20;;
17570;SDS011;8903;52.220;20.978;2024-02-21T05:58:39;21.70;;;12.13;;
17570;SDS011;8903;52.220;20.978;2024-02-21T06:01:05;23.47;;;12.27;;
17570;SDS011;8903;52.220;20.978;2024-02-21T06:03:32;21.90;;;11.43;;
17570;SDS011;8903;52.220;20.978;2024-02-21T06:05:59;28.07;;;13.30;;
17570;SDS011;8903;52.220;20.978;2024-02-21T06:08:25;27.63;;;13.37;;
17570;SDS011;8903;52.220;20.978;2024-02-21T06:10:51;28.27;;;13.00;;
17570;SDS011;8903;52.220;20.978;2024-02-21T06:13:28;24.00;;;12.13;;
17570;SDS011;8903;52.220;20.978;2024-02-21T06:15:54;36.13;;;13.53;;
17570;SDS011;8903;52.220;20.978;2024-02-21T06:18:20;32.63;;;13.17;;
17570;SDS011;8903;52.220;20.978;2024-02-21T06:20:46;40.33;;;14.63;;
17570;SDS011;8903;52.220;20.978;2024-02-21T06:23:12;78.23;;;15.40;;
17570;SDS011;8903;52.220;20.978;2024-02-21T06:25:41;25.63;;;13.27;;
17570;SDS011;8903;52.220;20.978;2024-02-21T06:28:06;34.30;;;14.50;;
17570;SDS011;8903;52.220;20.978;2024-02-21T06:30:32;18.93;;;13.00;;
17570;SDS011;8903;52.220;20.978;2024-02-21T06:32:58;33.50;;;14.13;;
17570;SDS011;8903;52.220;20.978;2024-02-21T06:35:24;34.20;;;13.97;;
17570;SDS011;8903;52.220;20.978;2024-02-21T06:37:53;22.80;;;13.60;;
17570;SDS011;8903;52.220;20.978;2024-02-21T06:40:21;24.23;;;14.30;;
17570;SDS011;8903;52.220;20.978;2024-02-21T06:42:48;36.47;;;15.63;;
17570;SDS011;8903;52.220;20.978;2024-02-21T06:45:14;39.03;;;14.90;;
17570;SDS011;8903;52.220;20.978;2024-02-21T06:47:40;38.37;;;14.57;;
17570;SDS011;8903;52.220;20.978;2024-02-21T06:50:06;38.37;;;16.67;;
17570;SDS011;8903;52.220;20.978;2024-02-21T06:52:32;27.87;;;16.20;;
17570;SDS011;8903;52.220;20.978;2024-02-21T06:54:58;31.83;;;15.03;;
17570;SDS011;8903;52.220;20.978;2024-02-21T06:57:23;36.83;;;15.30;;
17570;SDS011;8903;52.220;20.978;2024-02-21T06:59:49;26.20;;;14.57;;
17570;SDS011;8903;52.220;20.978;2024-02-21T07:02:15;31.83;;;14.00;;
17570;SDS011;8903;52.220;20.978;2024-02-21T07:04:41;39.13;;;15.50;;
17570;SDS011;8903;52.220;20.978;2024-02-21T07:07:06;27.43;;;16.17;;
17570;SDS011;8903;52.220;20.978;2024-02-21T07:09:32;35.97;;;15.30;;
17570;SDS011;8903;52.220;20.978;2024-02-21T07:11:58;48.83;;;17.20;;
17570;SDS011;8903;52.220;20.978;2024-02-21T07:14:24;23.53;;;13.97;;
17570;SDS011;8903;52.220;20.978;2024-02-21T07:16:50;26.20;;;15.40;;
17570;SDS011;8903;52.220;20.978;2024-02-21T07:19:16;42.00;;;14.70;;
17570;SDS011;8903;52.220;20.978;2024-02-21T07:21:42;32.67;;;15.53;;
17570;SDS011;8903;52.220;20.978;2024-02-21T07:24:08;32.53;;;16.00;;
17570;SDS011;8903;52.220;20.978;2024-02-21T07:26:34;44.33;;;15.80;;
17570;SDS011;8903;52.220;20.978;2024-02-21T07:29:00;46.57;;;17.27;;
17570;SDS011;8903;52.220;20.978;2024-02-21T07:31:26;32.10;;;15.20;;
17570;SDS011;8903;52.220;20.978;2024-02-21T07:33:51;26.53;;;15.57;;
17570;SDS011;8903;52.220;20.978;2024-02-21T07:36:27;24.17;;;15.80;;
17570;SDS011;8903;52.220;20.978;2024-02-21T07:38:55;85.73;;;21.03;;
17570;SDS011;8903;52.220;20.978;2024-02-21T07:41:20;42.43;;;15.53;;
17570;SDS011;8903;52.220;20.978;2024-02-21T07:43:46;40.90;;;17.50;;
17570;SDS011;8903;52.220;20.978;2024-02-21T07:46:13;34.97;;;16.27;;
17570;SDS011;8903;52.220;20.978;2024-02-21T07:48:39;42.50;;;15.50;;
17570;SDS011;8903;52.220;20.978;2024-02-21T07:51:05;29.03;;;15.03;;
17570;SDS011;8903;52.220;20.978;2024-02-21T07:53:31;34.47;;;15.00;;
17570;SDS011;8903;52.220;20.978;2024-02-21T07:55:57;39.40;;;16.20;;
17570;SDS011;8903;52.220;20.978;2024-02-21T07:58:22;31.60;;;15.73;;
17570;SDS011;8903;52.220;20.978;2024-02-21T08:00:48;40.70;;;16.10;;
17570;SDS011;8903;52.220;20.978;2024-02-21T08:03:14;27.20;;;15.30;;
17570;SDS011;8903;52.220;20.978;2024-02-21T08:05:43;30.93;;;16.23;;
17570;SDS011;8903;52.220;20.978;2024-02-21T08:08:09;24.97;;;14.03;;
17570;SDS011;8903;52.220;20.978;2024-02-21T08:10:34;28.50;;;15.63;;
17570;SDS011;8903;52.220;20.978;2024-02-21T08:13:00;32.00;;;16.90;;
17570;SDS011;8903;52.220;20.978;2024-02-21T08:15:26;26.87;;;15.00;;
17570;SDS011;8903;52.220;20.978;2024-02-21T08:17:57;36.27;;;17.00;;
17570;SDS011;8903;52.220;20.978;2024-02-21T08:20:26;36.93;;;16.93;;
17570;SDS011;8903;52.220;20.978;2024-02-21T08:22:52;37.20;;;16.87;;
17570;SDS011;8903;52.220;20.978;2024-02-21T08:25:18;36.80;;;16.87;;
17570;SDS011;8903;52.220;20.978;2024-02-21T08:27:43;41.30;;;16.23;;
17570;SDS011;8903;52.220;20.978;2024-02-21T08:30:10;29.87;;;17.57;;
17570;SDS011;8903;52.220;20.978;2024-02-21T08:32:37;33.57;;;16.77;;
17570;SDS011;8903;52.220;20.978;2024-02-21T08:35:03;29.90;;;15.97;;
17570;SDS011;8903;52.220;20.978;2024-02-21T08:37:30;32.50;;;16.90;;
17570;SDS011;8903;52.220;20.978;2024-02-21T08:39:56;31.83;;;17.27;;
17570;SDS011;8903;52.220;20.978;2024-02-21T08:42:22;32.57;;;17.63;;
17570;SDS011;8903;52.220;20.978;2024-02-21T08:44:47;32.17;;;17.33;;
17570;SDS011;8903;52.220;20.978;2024-02-21T08:47:13;31.87;;;17.40;;
17570;SDS011;8903;52.220;20.978;2024-02-21T08:49:39;30.07;;;18.10;;
17570;SDS011;8903;52.220;20.978;2024-02-21T08:52:05;38.87;;;17.00;;
17570;SDS011;8903;52.220;20.978;2024-02-21T08:54:31;27.20;;;15.17;;
17570;SDS011;8903;52.220;20.978;2024-02-21T08:57:00;36.80;;;16.60;;
17570;SDS011;8903;52.220;20.978;2024-02-21T08:59:25;32.47;;;16.60;;
17570;SDS011;8903;52.220;20.978;2024-02-21T09:01:51;31.37;;;17.27;;
17570;SDS011;8903;52.220;20.978;2024-02-21T09:04:20;29.73;;;16.67;;
17570;SDS011;8903;52.220;20.978;2024-02-21T09:06:46;33.33;;;16.73;;
17570;SDS011;8903;52.220;20.978;2024-02-21T09:09:11;56.07;;;15.07;;
17570;SDS011;8903;52.220;20.978;2024-02-21T09:11:38;44.33;;;16.37;;
17570;SDS011;8903;52.220;20.978;2024-02-21T09:14:05;35.20;;;15.47;;
17570;SDS011;8903;52.220;20.978;2024-02-21T09:16:33;47.90;;;19.20;;
17570;SDS011;8903;52.220;20.978;2024-02-21T09:18:59;31.27;;;15.20;;
17570;SDS011;8903;52.220;20.978;2024-02-21T09:21:25;32.60;;;14.77;;
17570;SDS011;8903;52.220;20.978;2024-02-21T09:23:53;32.37;;;15.23;;
17570;SDS011;8903;52.220;20.978;2024-02-21T09:26:19;34.77;;;14.63;;
17570;SDS011;8903;52.220;20.978;2024-02-21T09:28:44;28.93;;;15.53;;
17570;SDS011;8903;52.220;20.978;2024-02-21T09:31:10;46.33;;;17.23;;
17570;SDS011;8903;52.220;20.978;2024-02-21T09:33:36;29.27;;;14.53;;
17570;SDS011;8903;52.220;20.978;2024-02-21T09:36:02;32.50;;;13.00;;
17570;SDS011;8903;52.220;20.978;2024-02-21T09:38:31;19.50;;;11.97;;
17570;SDS011;8903;52.220;20.978;2024-02-21T09:41:03;34.03;;;13.60;;
17570;SDS011;8903;52.220;20.978;2024-02-21T09:43:29;33.33;;;14.00;;
17570;SDS011;8903;52.220;20.978;2024-02-21T09:45:58;22.77;;;12.67;;
17570;SDS011;8903;52.220;20.978;2024-02-21T09:48:42;21.90;;;11.33;;
17570;SDS011;8903;52.220;20.978;2024-02-21T09:51:19;24.67;;;10.87;;
17570;SDS011;8903;52.220;20.978;2024-02-21T09:53:46;23.23;;;10.53;;
17570;SDS011;8903;52.220;20.978;2024-02-21T09:56:13;22.57;;;10.63;;
17570;SDS011;8903;52.220;20.978;2024-02-21T09:58:39;16.47;;;10.00;;
17570;SDS011;8903;52.220;20.978;2024-02-21T10:01:06;22.73;;;10.37;;
17570;SDS011;8903;52.220;20.978;2024-02-21T10:03:33;31.83;;;11.30;;
17570;SDS011;8903;52.220;20.978;2024-02-21T10:05:59;19.70;;;10.17;;
17570;SDS011;8903;52.220;20.978;2024-02-21T10:08:26;24.77;;;11.47;;
17570;SDS011;8903;52.220;20.978;2024-02-21T10:10:52;30.13;;;10.57;;
17570;SDS011;8903;52.220;20.978;2024-02-21T10:13:27;26.30;;;10.23;;
17570;SDS011;8903;52.220;20.978;2024-02-21T10:16:06;28.40;;;10.23;;
17570;SDS011;8903;52.220;20.978;2024-02-21T10:18:33;18.73;;;8.60;;
17570;SDS011;8903;52.220;20.978;2024-02-21T10:21:06;21.80;;;9.00;;
17570;SDS011;8903;52.220;20.978;2024-02-21T10:23:46;20.50;;;9.53;;
17570;SDS011;8903;52.220;20.978;2024-02-21T10:26:16;21.83;;;9.73;;
17570;SDS011;8903;52.220;20.978;2024-02-21T10:28:43;36.30;;;10.90;;
17570;SDS011;8903;52.220;20.978;2024-02-21T10:31:22;22.80;;;8.73;;
17570;SDS011;8903;52.220;20.978;2024-02-21T10:33:53;28.17;;;9.70;;
17570;SDS011;8903;52.220;20.978;2024-02-21T10:36:24;32.43;;;10.80;;
17570;SDS011;8903;52.220;20.978;2024-02-21T10:38:50;16.87;;;8.60;;
17570;SDS011;8903;52.220;20.978;2024-02-21T10:41:16;21.30;;;9.57;;
17570;SDS011;8903;52.220;20.978;2024-02-21T10:43:46;16.00;;;9.63;;
17570;SDS011;8903;52.220;20.978;2024-02-21T10:46:20;31.83;;;10.47;;
17570;SDS011;8903;52.220;20.978;2024-02-21T10:48:47;22.70;;;10.30;;
17570;SDS011;8903;52.220;20.978;2024-02-21T10:51:27;23.67;;;11.87;;
17570;SDS011;8903;52.220;20.978;2024-02-21T10:56:38;17.37;;;11.33;;
17570;SDS011;8903;52.220;20.978;2024-02-21T10:59:06;34.30;;;12.80;;
17570;SDS011;8903;52.220;20.978;2024-02-21T11:01:33;39.73;;;12.40;;
17570;SDS011;8903;52.220;20.978;2024-02-21T11:04:07;28.37;;;12.70;;
17570;SDS011;8903;52.220;20.978;2024-02-21T11:06:34;20.80;;;11.50;;
17570;SDS011;8903;52.220;20.978;2024-02-21T11:11:29;28.73;;;12.80;;
17570;SDS011;8903;52.220;20.978;2024-02-21T11:14:11;22.00;;;11.67;;
17570;SDS011;8903;52.220;20.978;2024-02-21T11:16:43;20.57;;;11.63;;
17570;SDS011;8903;52.220;20.978;2024-02-21T11:19:09;25.77;;;12.47;;
17570;SDS011;8903;52.220;20.978;2024-02-21T11:21:44;27.97;;;13.80;;
17570;SDS011;8903;52.220;20.978;2024-02-21T11:24:12;36.67;;;14.77;;
17570;SDS011;8903;52.220;20.978;2024-02-21T11:26:37;25.57;;;13.80;;
17570;SDS011;8903;52.220;20.978;2024-02-21T11:29:04;32.03;;;13.87;;
17570;SDS011;8903;52.220;20.978;2024-02-21T11:31:43;26.43;;;14.27;;
17570;SDS011;8903;52.220;20.978;2024-02-21T11:34:13;27.00;;;13.83;;
17570;SDS011;8903;52.220;20.978;2024-02-21T11:36:48;29.37;;;15.50;;
17570;SDS011;8903;52.220;20.978;2024-02-21T11:39:22;32.43;;;14.87;;
17570;SDS011;8903;52.220;20.978;2024-02-21T11:42:03;31.40;;;15.83;;
17570;SDS011;8903;52.220;20.978;2024-02-21T11:44:31;38.97;;;15.10;;
17570;SDS011;8903;52.220;20.978;2024-02-21T11:46:57;40.23;;;16.37;;
17570;SDS011;8903;52.220;20.978;2024-02-21T11:49:29;27.30;;;13.23;;
17570;SDS011;8903;52.220;20.978;2024-02-21T11:52:01;50.60;;;16.50;;
17570;SDS011;8903;52.220;20.978;2024-02-21T11:54:32;29.23;;;14.90;;
17570;SDS011;8903;52.220;20.978;2024-02-21T11:56:58;31.30;;;15.43;;
17570;SDS011;8903;52.220;20.978;2024-02-21T11:59:25;20.53;;;13.70;;
17570;SDS011;8903;52.220;20.978;2024-02-21T12:01:52;27.30;;;14.17;;
17570;SDS011;8903;52.220;20.978;2024-02-21T12:04:18;22.63;;;14.20;;
17570;SDS011;8903;52.220;20.978;2024-02-21T12:06:45;24.43;;;15.00;;
17570;SDS011;8903;52.220;20.978;2024-02-21T12:09:14;30.10;;;15.57;;
17570;SDS011;8903;52.220;20.978;2024-02-21T12:11:44;36.60;;;16.57;;
17570;SDS011;8903;52.220;20.978;2024-02-21T12:14:10;32.63;;;16.60;;
17570;SDS011;8903;52.220;20.978;2024-02-21T12:16:40;27.80;;;16.60;;
17570;SDS011;8903;52.220;20.978;2024-02-21T12:19:07;32.10;;;16.00;;
17570;SDS011;8903;52.220;20.978;2024-02-21T12:21:34;24.73;;;14.20;;
17570;SDS011;8903;52.220;20.978;2024-02-21T12:24:14;24.43;;;15.10;;
17570;SDS011;8903;52.220;20.978;2024-02-21T12:26:48;27.33;;;15.37;;
17570;SDS011;8903;52.220;20.978;2024-02-21T12:29:18;25.77;;;16.40;;
17570;SDS011;8903;52.220;20.978;2024-02-21T12:31:44;27.57;;;16.37;;
17570;SDS011;8903;52.220;20.978;2024-02-21T12:34:10;31.10;;;17.03;;
17570;SDS011;8903;52.220;20.978;2024-02-21T12:36:40;30.83;;;17.03;;
17570;SDS011;8903;52.220;20.978;2024-02-21T12:39:11;27.03;;;17.63;;
17570;SDS011;8903;52.220;20.978;2024-02-21T12:41:37;36.53;;;17.60;;
17570;SDS011;8903;52.220;20.978;2024-02-21T12:44:04;27.30;;;17.83;;
17570;SDS011;8903;52.220;20.978;2024-02-21T12:46:34;35.80;;;16.93;;
17570;SDS011;8903;52.220;20.978;2024-02-21T12:49:00;24.17;;;17.07;;
17570;SDS011;8903;52.220;20.978;2024-02-21T12:51:29;23.37;;;17.60;;
17570;SDS011;8903;52.220;20.978;2024-02-21T12:53:58;39.50;;;18.00;;
17570;SDS011;8903;52.220;20.978;2024-02-21T12:56:25;33.10;;;16.07;;
17570;SDS011;8903;52.220;20.978;2024-02-21T12:58:52;59.57;;;19.57;;
17570;SDS011;8903;52.220;20.978;2024-02-21T13:01:18;33.17;;;17.43;;
17570;SDS011;8903;52.220;20.978;2024-02-21T13:03:44;31.63;;;16.43;;
17570;SDS011;8903;52.220;20.978;2024-02-21T13:06:11;29.63;;;16.53;;
17570;SDS011;8903;52.220;20.978;2024-02-21T13:08:38;39.43;;;15.80;;
17570;SDS011;8903;52.220;20.978;2024-02-21T13:11:04;32.37;;;17.00;;
17570;SDS011;8903;52.220;20.978;2024-02-21T13:13:30;24.90;;;15.20;;
17570;SDS011;8903;52.220;20.978;2024-02-21T13:15:56;35.63;;;17.13;;
17570;SDS011;8903;52.220;20.978;2024-02-21T13:18:23;30.70;;;15.10;;
17570;SDS011;8903;52.220;20.978;2024-02-21T13:20:48;31.40;;;15.10;;
17570;SDS011;8903;52.220;20.978;2024-02-21T13:23:14;27.47;;;14.63;;
17570;SDS011;8903;52.220;20.978;2024-02-21T13:25:40;30.57;;;15.83;;
17570;SDS011;8903;52.220;20.978;2024-02-21T13:28:06;21.70;;;14.50;;
17570;SDS011;8903;52.220;20.978;2024-02-21T13:30:32;25.17;;;14.77;;
17570;SDS011;8903;52.220;20.978;2024-02-21T13:32:58;49.73;;;18.40;;
17570;SDS011;8903;52.220;20.978;2024-02-21T13:35:24;29.70;;;15.03;;
17570;SDS011;8903;52.220;20.978;2024-02-21T13:37:49;31.13;;;16.67;;
17570;SDS011;8903;52.220;20.978;2024-02-21T13:40:15;23.80;;;15.90;;
17570;SDS011;8903;52.220;20.978;2024-02-21T13:42:41;34.00;;;16.57;;
17570;SDS011;8903;52.220;20.978;2024-02-21T13:45:08;29.13;;;15.93;;
17570;SDS011;8903;52.220;20.978;2024-02-21T13:47:34;24.10;;;15.87;;
17570;SDS011;8903;52.220;20.978;2024-02-21T13:50:04;23.93;;;13.90;;
17570;SDS011;8903;52.220;20.978;2024-02-21T13:52:34;22.53;;;15.20;;
17570;SDS011;8903;52.220;20.978;2024-02-21T13:55:00;39.50;;;15.57;;
17570;SDS011;8903;52.220;20.978;2024-02-21T13:57:26;20.33;;;12.43;;
17570;SDS011;8903;52.220;20.978;2024-02-21T13:59:51;29.03;;;15.60;;
17570;SDS011;8903;52.220;20.978;2024-02-21T14:02:17;34.67;;;15.50;;
17570;SDS011;8903;52.220;20.978;2024-02-21T14:04:43;25.50;;;15.13;;
17570;SDS011;8903;52.220;20.978;2024-02-21T14:07:09;28.03;;;15.53;;
17570;SDS011;8903;52.220;20.978;2024-02-21T14:09:35;22.90;;;13.40;;
17570;SDS011;8903;52.220;20.978;2024-02-21T14:12:04;24.17;;;13.20;;
17570;SDS011;8903;52.220;20.978;2024-02-21T14:14:33;22.73;;;13.63;;
17570;SDS011;8903;52.220;20.978;2024-02-21T14:17:00;18.27;;;12.40;;
17570;SDS011;8903;52.220;20.978;2024-02-21T14:19:26;22.80;;;13.90;;
17570;SDS011;8903;52.220;20.978;2024-02-21T14:21:52;44.57;;;15.43;;
17570;SDS011;8903;52.220;20.978;2024-02-21T14:24:18;17.80;;;11.60;;
17570;SDS011;8903;52.220;20.978;2024-02-21T14:26:44;26.73;;;12.60;;
17570;SDS011;8903;52.220;20.978;2024-02-21T14:29:09;23.27;;;12.27;;
17570;SDS011;8903;52.220;20.978;2024-02-21T14:31:35;21.97;;;11.70;;